Time;durP1;ratioP1;P1;durP2;ratioP2;P2;SDS_P1;SDS_P2;PMS_P1;PMS_P2;Temp;Humidity;BMP_temperature;BMP_pressure;BME280_temperature;BME280_humidity;BME280_pressure;Samples;Min_cycle;Max_cycle;Signal;HPM_P1;HPM_P2
2023/03/09 00:02:13;;;;;;;4.60;4.07;;;9.30;96.70;;;;;;5091983;28;20232;-77
2023/03/09 00:04:38;;;;;;;3.90;3.37;;;9.20;96.80;;;;;;5092175;28;20283;-76
2023/03/09 00:07:04;;;;;;;6.80;5.10;;;9.20;96.90;;;;;;5091882;28;20173;-79
2023/03/09 00:09:30;;;;;;;4.70;4.27;;;9.20;96.90;;;;;;5091599;28;20183;-79
2023/03/09 00:11:56;;;;;;;4.63;4.03;;;9.20;96.90;;;;;;5091588;28;20902;-79
2023/03/09 00:14:22;;;;;;;4.97;4.47;;;9.10;97.00;;;;;;5091668;28;20179;-79
2023/03/09 00:16:48;;;;;;;5.50;4.63;;;9.10;97.10;;;;;;5072862;28;20186;-80
2023/03/09 00:19:20;;;;;;;5.43;4.00;;;9.00;97.30;;;;;;5091913;28;20262;-78
2023/03/09 00:21:51;;;;;;;4.37;3.97;;;9.00;97.30;;;;;;5073813;28;20171;-76
2023/03/09 00:24:19;;;;;;;4.77;3.97;;;9.00;97.30;;;;;;5091610;28;20293;-74
2023/03/09 00:26:54;;;;;;;4.27;3.87;;;8.90;97.30;;;;;;5091955;28;20171;-80
2023/03/09 00:29:20;;;;;;;6.00;4.20;;;8.80;97.50;;;;;;5091969;28;20549;-79
2023/03/09 00:31:47;;;;;;;5.17;4.00;;;8.70;97.60;;;;;;5091735;28;20170;-74
2023/03/09 00:34:15;;;;;;;4.20;3.80;;;8.70;97.70;;;;;;5091192;28;20179;-73
2023/03/09 00:36:40;;;;;;;5.40;4.10;;;8.70;97.80;;;;;;5090197;28;20171;-74
2023/03/09 00:39:06;;;;;;;4.20;3.83;;;8.70;97.90;;;;;;5090554;28;20504;-78
2023/03/09 00:41:32;;;;;;;5.23;4.23;;;8.70;97.80;;;;;;5091444;28;20178;-76
2023/03/09 00:43:59;;;;;;;4.03;3.73;;;8.60;97.80;;;;;;5090834;28;20313;-73
2023/03/09 00:46:25;;;;;;;4.47;4.07;;;8.80;97.70;;;;;;5092131;28;20199;-73
2023/03/09 00:48:51;;;;;;;4.80;4.37;;;8.60;98.00;;;;;;5107106;28;20173;-77
2023/03/09 00:51:18;;;;;;;7.27;4.50;;;8.50;98.00;;;;;;5094559;28;20181;-78
2023/03/09 00:53:43;;;;;;;4.83;4.37;;;8.40;98.20;;;;;;5094818;28;20192;-82
2023/03/09 00:56:15;;;;;;;4.90;4.40;;;8.40;98.30;;;;;;5095358;28;20174;-80
2023/03/09 00:58:40;;;;;;;4.37;3.97;;;8.40;98.30;;;;;;5095347;28;20163;-80
2023/03/09 01:01:11;;;;;;;4.53;3.90;;;8.40;98.40;;;;;;5077998;28;20169;-78
2023/03/09 01:03:37;;;;;;;4.50;3.97;;;8.30;98.50;;;;;;5094883;28;20198;-79
2023/03/09 01:06:04;;;;;;;4.53;4.10;;;8.30;98.60;;;;;;5095001;28;20921;-78
2023/03/09 01:08:30;;;;;;;5.50;5.00;;;8.20;98.70;;;;;;5094824;28;20184;-80
2023/03/09 01:10:56;;;;;;;4.90;4.40;;;8.20;98.60;;;;;;5094884;28;20705;-80
2023/03/09 01:13:22;;;;;;;4.07;3.77;;;8.10;98.70;;;;;;5094156;28;20171;-79
2023/03/09 01:15:48;;;;;;;5.07;4.40;;;8.00;98.90;;;;;;5094973;28;20177;-80
2023/03/09 01:18:14;;;;;;;5.30;4.80;;;8.00;99.00;;;;;;5094973;28;20292;-80
2023/03/09 01:20:40;;;;;;;5.03;4.43;;;7.90;99.00;;;;;;5095490;28;20209;-80
2023/03/09 01:23:06;;;;;;;6.30;4.70;;;7.90;99.00;;;;;;5097015;28;20200;-76
2023/03/09 01:25:32;;;;;;;5.80;4.20;;;7.90;99.20;;;;;;5096446;28;20204;-80
2023/03/09 01:27:57;;;;;;;5.60;4.27;;;8.00;99.20;;;;;;5096791;28;20166;-78
2023/03/09 01:30:23;;;;;;;5.37;4.63;;;7.90;99.20;;;;;;5095384;28;20208;-77
2023/03/09 01:32:49;;;;;;;6.67;4.70;;;7.80;99.40;;;;;;5092053;28;20257;-75
2023/03/09 01:35:15;;;;;;;6.43;5.00;;;7.80;99.40;;;;;;5091010;28;20171;-78
2023/03/09 01:37:41;;;;;;;6.27;4.43;;;7.90;99.50;;;;;;5101861;28;20575;-75
2023/03/09 01:40:07;;;;;;;5.60;4.77;;;7.90;99.40;;;;;;5085356;28;20182;-75
2023/03/09 01:42:34;;;;;;;5.63;4.37;;;7.80;99.40;;;;;;5074083;28;20193;-73
2023/03/09 01:45:18;;;;;;;6.13;4.67;;;7.90;99.50;;;;;;5074603;28;20218;-73
2023/03/09 01:47:44;;;;;;;4.83;4.20;;;7.80;99.50;;;;;;5057406;28;20197;-74
2023/03/09 01:50:11;;;;;;;6.53;5.00;;;7.80;99.60;;;;;;5074187;28;20265;-74
2023/03/09 01:52:38;;;;;;;6.93;4.53;;;7.70;99.70;;;;;;5073997;28;20225;-75
2023/03/09 01:55:08;;;;;;;5.33;4.83;;;7.70;99.70;;;;;;5055743;28;20620;-73
2023/03/09 01:57:51;;;;;;;5.97;4.80;;;7.70;99.70;;;;;;5073995;28;20166;-73
2023/03/09 02:00:24;;;;;;;5.67;4.60;;;7.70;99.90;;;;;;5073595;28;20163;-73
2023/03/09 02:02:58;;;;;;;5.73;4.63;;;7.70;99.90;;;;;;5087438;28;20184;-72
2023/03/09 02:05:40;;;;;;;5.77;4.37;;;7.70;99.90;;;;;;5113815;28;20163;-74
2023/03/09 02:08:08;;;;;;;5.57;4.20;;;7.60;99.90;;;;;;5113377;28;20176;-75
2023/03/09 02:10:52;;;;;;;7.27;4.90;;;7.60;99.90;;;;;;5113823;28;20263;-74
2023/03/09 02:13:21;;;;;;;5.77;4.53;;;7.50;99.90;;;;;;5096454;28;20561;-75
2023/03/09 02:15:48;;;;;;;4.80;4.33;;;7.50;99.90;;;;;;5114334;28;20174;-78
2023/03/09 02:18:13;;;;;;;6.30;5.20;;;7.50;99.90;;;;;;5114006;28;20211;-75
2023/03/09 02:20:53;;;;;;;4.67;4.27;;;7.50;99.90;;;;;;5114422;28;20184;-74
2023/03/09 02:23:25;;;;;;;5.17;4.67;;;7.50;99.90;;;;;;5123263;28;20176;-72
2023/03/09 02:26:18;;;;;;;4.83;4.40;;;7.50;99.90;;;;;;5120265;28;20216;-79
2023/03/09 02:28:44;;;;;;;5.10;4.60;;;7.40;99.90;;;;;;5113995;28;20207;-79
2023/03/09 02:31:14;;;;;;;4.57;4.10;;;7.60;99.90;;;;;;5113481;28;20639;-80
2023/03/09 02:33:40;;;;;;;7.23;4.77;;;7.80;99.90;;;;;;5113769;28;20174;-80
2023/03/09 02:36:06;;;;;;;5.23;4.70;;;7.70;99.90;;;;;;5113890;28;20930;-82
2023/03/09 02:38:33;;;;;;;5.93;4.23;;;7.70;99.90;;;;;;5095580;28;20187;-79
2023/03/09 02:41:00;;;;;;;4.67;4.20;;;7.60;99.90;;;;;;5113400;28;20177;-80
2023/03/09 02:43:35;;;;;;;4.63;4.23;;;7.60;99.90;;;;;;5113292;28;20236;-78
2023/03/09 02:46:00;;;;;;;5.87;4.33;;;7.70;99.80;;;;;;5113406;28;20169;-73
2023/03/09 02:48:26;;;;;;;4.93;4.47;;;7.50;99.90;;;;;;5113041;28;20183;-78
2023/03/09 02:50:52;;;;;;;5.90;4.70;;;7.50;99.90;;;;;;5113436;28;20655;-79
2023/03/09 02:53:17;;;;;;;4.27;3.97;;;7.40;99.90;;;;;;5113193;28;20173;-75
2023/03/09 02:55:43;;;;;;;6.20;4.60;;;7.40;99.90;;;;;;5113320;28;20249;-79
2023/03/09 02:58:09;;;;;;;5.97;4.33;;;7.30;99.90;;;;;;5112935;28;20188;-75
2023/03/09 03:00:35;;;;;;;7.27;3.77;;;7.30;99.90;;;;;;5094560;28;20184;-76
2023/03/09 03:03:00;;;;;;;6.20;4.33;;;7.40;99.90;;;;;;5113257;28;20178;-81
2023/03/09 03:05:27;;;;;;;4.77;4.37;;;7.30;99.90;;;;;;5113144;28;20191;-78
2023/03/09 03:07:52;;;;;;;4.40;4.00;;;7.30;99.90;;;;;;5094542;28;20548;-76
2023/03/09 03:10:18;;;;;;;5.77;4.90;;;7.20;99.90;;;;;;5094320;28;20183;-78
2023/03/09 03:12:44;;;;;;;5.00;4.47;;;7.20;99.90;;;;;;5113059;28;20254;-75
2023/03/09 03:15:10;;;;;;;4.90;4.40;;;7.30;99.90;;;;;;5094391;28;20180;-78
2023/03/09 03:17:36;;;;;;;5.27;4.37;;;7.40;99.90;;;;;;5094565;28;20188;-77
2023/03/09 03:20:05;;;;;;;5.33;4.33;;;7.40;99.90;;;;;;5112689;28;20253;-75
2023/03/09 03:22:31;;;;;;;4.73;4.33;;;7.40;99.90;;;;;;5112721;28;20170;-77
2023/03/09 03:24:56;;;;;;;4.50;4.17;;;7.50;99.90;;;;;;5094214;28;20209;-76
2023/03/09 03:27:22;;;;;;;4.67;4.20;;;7.50;99.90;;;;;;5112702;28;20166;-79
2023/03/09 03:29:52;;;;;;;5.93;4.40;;;7.40;99.90;;;;;;5113087;28;20177;-75
2023/03/09 03:32:17;;;;;;;5.17;4.63;;;7.40;99.90;;;;;;5116245;28;20173;-77
2023/03/09 03:34:43;;;;;;;5.17;4.67;;;7.40;99.90;;;;;;5116850;28;20187;-79
2023/03/09 03:37:09;;;;;;;5.13;4.63;;;7.40;99.90;;;;;;5095042;28;20169;-78
2023/03/09 03:39:34;;;;;;;5.10;4.60;;;7.40;99.90;;;;;;5113636;28;20221;-77
2023/03/09 03:42:00;;;;;;;5.80;4.30;;;7.40;99.90;;;;;;5113571;28;20168;-78
2023/03/09 03:44:27;;;;;;;9.30;4.83;;;7.40;99.90;;;;;;5112648;28;20237;-76
2023/03/09 03:46:52;;;;;;;5.27;4.27;;;7.50;99.90;;;;;;5112810;28;20634;-74
2023/03/09 03:49:18;;;;;;;4.60;4.17;;;7.40;99.90;;;;;;5111907;28;20214;-77
2023/03/09 03:51:44;;;;;;;6.23;4.77;;;7.40;99.90;;;;;;5112560;28;20180;-78
2023/03/09 03:54:09;;;;;;;5.37;4.20;;;7.40;99.90;;;;;;5113237;28;20176;-72
2023/03/09 03:56:35;;;;;;;5.23;4.17;;;7.40;99.90;;;;;;5095393;28;20208;-75
2023/03/09 03:59:01;;;;;;;5.03;4.47;;;7.30;99.90;;;;;;5123912;28;20182;-76
2023/03/09 04:01:26;;;;;;;4.70;4.30;;;7.30;99.90;;;;;;5114536;28;20203;-77
2023/03/09 04:03:52;;;;;;;4.60;4.10;;;7.40;99.90;;;;;;5112742;28;20288;-77
2023/03/09 04:06:18;;;;;;;5.37;4.60;;;7.40;99.90;;;;;;5112469;28;20168;-72
2023/03/09 04:08:44;;;;;;;7.80;4.87;;;7.40;99.90;;;;;;5112563;28;20596;-80
2023/03/09 04:11:11;;;;;;;4.33;3.93;;;7.40;99.90;;;;;;5112845;28;20646;-78
2023/03/09 04:13:37;;;;;;;4.00;3.70;;;7.40;99.90;;;;;;5112909;28;20193;-81
2023/03/09 04:16:03;;;;;;;4.67;4.27;;;7.40;99.90;;;;;;5113328;28;20217;-78
2023/03/09 04:18:29;;;;;;;5.73;4.33;;;7.40;99.90;;;;;;5112616;28;20170;-74
2023/03/09 04:20:54;;;;;;;7.00;4.37;;;7.40;99.90;;;;;;5093603;28;20185;-80
2023/03/09 04:23:20;;;;;;;5.33;4.23;;;7.40;99.90;;;;;;5112546;28;20200;-78
2023/03/09 04:26:01;;;;;;;6.90;4.20;;;7.50;99.90;;;;;;5113565;28;20196;-77
2023/03/09 04:28:27;;;;;;;4.70;3.90;;;7.50;99.90;;;;;;5115890;28;20173;-81
2023/03/09 04:30:53;;;;;;;4.83;4.33;;;7.40;99.90;;;;;;5115911;28;20177;-79
2023/03/09 04:33:19;;;;;;;7.20;4.37;;;7.50;99.90;;;;;;5116364;28;20175;-80
2023/03/09 04:35:45;;;;;;;9.17;4.47;;;7.50;99.90;;;;;;5116155;28;20164;-80
2023/03/09 04:38:11;;;;;;;4.23;3.80;;;7.60;99.90;;;;;;5116310;28;20176;-79
2023/03/09 04:40:37;;;;;;;5.50;4.40;;;7.50;99.90;;;;;;5116093;28;20657;-80
2023/03/09 04:43:03;;;;;;;5.70;4.50;;;7.50;99.90;;;;;;5115855;28;20226;-79
2023/03/09 04:45:29;;;;;;;6.80;4.50;;;7.50;99.90;;;;;;5115721;28;20161;-80
2023/03/09 04:47:55;;;;;;;5.47;4.47;;;7.50;99.90;;;;;;5115363;28;20176;-76
2023/03/09 04:50:22;;;;;;;5.30;4.80;;;7.40;99.90;;;;;;5115406;28;20583;-75
2023/03/09 04:52:49;;;;;;;6.27;4.70;;;7.30;99.90;;;;;;5116346;28;20187;-78
2023/03/09 04:55:15;;;;;;;4.53;4.23;;;7.20;99.90;;;;;;5098515;28;20222;-80
2023/03/09 04:57:41;;;;;;;8.93;4.97;;;7.20;99.90;;;;;;5116668;28;20171;-77
2023/03/09 05:00:10;;;;;;;6.33;4.70;;;7.10;99.90;;;;;;5116001;28;20226;-77
2023/03/09 05:02:37;;;;;;;4.90;4.40;;;7.10;99.90;;;;;;5116786;28;20274;-77
2023/03/09 05:05:03;;;;;;;6.63;4.70;;;7.20;99.90;;;;;;5115725;28;20617;-78
2023/03/09 05:07:28;;;;;;;7.50;5.20;;;7.20;99.90;;;;;;5116667;28;20208;-76
2023/03/09 05:09:54;;;;;;;6.27;4.80;;;7.30;99.90;;;;;;5116833;28;20172;-75
2023/03/09 05:12:20;;;;;;;4.87;4.47;;;7.30;99.90;;;;;;5116728;28;20194;-77
2023/03/09 05:14:46;;;;;;;7.33;4.87;;;7.30;99.90;;;;;;5116353;28;20177;-76
2023/03/09 05:17:11;;;;;;;4.93;4.33;;;7.40;99.90;;;;;;5115370;28;20277;-78
2023/03/09 05:19:37;;;;;;;5.13;4.63;;;7.40;99.90;;;;;;5115338;28;20184;-76
2023/03/09 05:22:04;;;;;;;6.03;4.17;;;7.40;99.90;;;;;;5114802;28;20189;-74
2023/03/09 05:24:29;;;;;;;4.97;3.90;;;7.30;99.90;;;;;;5097822;28;20633;-74
2023/03/09 05:26:55;;;;;;;5.10;4.30;;;7.10;99.90;;;;;;5117892;28;20253;-73
2023/03/09 05:29:21;;;;;;;4.90;4.10;;;7.10;99.90;;;;;;5118207;28;20189;-73
2023/03/09 05:31:47;;;;;;;4.73;4.33;;;7.00;99.90;;;;;;5116603;28;20193;-71
2023/03/09 05:34:12;;;;;;;5.43;4.80;;;7.00;99.90;;;;;;5127040;28;20173;-74
2023/03/09 05:36:38;;;;;;;6.30;4.60;;;7.00;99.90;;;;;;5119739;28;20633;-81
2023/03/09 05:39:04;;;;;;;5.40;4.47;;;6.90;99.90;;;;;;5116896;28;20545;-78
2023/03/09 05:41:30;;;;;;;5.17;4.63;;;7.00;99.90;;;;;;5116367;28;20339;-79
2023/03/09 05:43:59;;;;;;;5.70;4.37;;;6.90;99.90;;;;;;5119968;28;20247;-79
2023/03/09 05:46:24;;;;;;;5.30;4.17;;;6.80;99.90;;;;;;5118024;28;20175;-79
2023/03/09 05:48:50;;;;;;;6.63;4.73;;;7.00;99.90;;;;;;5115892;28;20187;-76
2023/03/09 05:51:16;;;;;;;5.47;4.77;;;7.00;99.90;;;;;;5114545;28;20176;-76
2023/03/09 05:53:42;;;;;;;6.33;5.00;;;7.00;99.90;;;;;;5114902;28;20181;-77
2023/03/09 05:56:08;;;;;;;5.50;4.57;;;7.00;99.90;;;;;;5114878;28;20228;-78
2023/03/09 05:58:34;;;;;;;6.30;4.43;;;7.10;99.90;;;;;;5114811;28;20238;-75
2023/03/09 06:01:01;;;;;;;4.50;4.10;;;7.10;99.90;;;;;;5114319;28;20210;-77
2023/03/09 06:03:27;;;;;;;5.57;4.63;;;7.20;99.90;;;;;;5114401;28;20259;-78
2023/03/09 06:06:01;;;;;;;5.20;4.23;;;7.10;99.90;;;;;;5114644;28;20181;-80
2023/03/09 06:08:27;;;;;;;4.80;4.40;;;7.00;99.90;;;;;;5114116;28;20458;-82
2023/03/09 06:10:53;;;;;;;6.50;4.60;;;6.90;99.90;;;;;;5114359;28;20183;-80
2023/03/09 06:13:20;;;;;;;6.23;5.63;;;7.00;99.90;;;;;;5114902;28;20186;-80
2023/03/09 06:15:46;;;;;;;5.40;4.70;;;6.90;99.90;;;;;;5115260;28;20183;-78
2023/03/09 06:18:12;;;;;;;6.83;5.20;;;7.00;99.90;;;;;;5114792;28;20203;-75
2023/03/09 06:20:37;;;;;;;5.47;4.97;;;7.00;99.90;;;;;;5114226;28;20179;-76
2023/03/09 06:23:03;;;;;;;6.53;4.80;;;7.00;99.90;;;;;;5114382;28;20180;-76
2023/03/09 06:25:29;;;;;;;5.73;4.50;;;7.00;99.90;;;;;;5114169;28;20181;-76
2023/03/09 06:27:55;;;;;;;5.43;4.83;;;7.10;99.90;;;;;;5114286;28;20198;-75
2023/03/09 06:30:21;;;;;;;8.20;4.87;;;7.10;99.90;;;;;;5114153;28;20176;-76
2023/03/09 06:32:47;;;;;;;6.57;4.50;;;7.20;99.90;;;;;;5096022;28;20188;-77
2023/03/09 06:35:13;;;;;;;6.93;5.10;;;7.20;99.90;;;;;;5120092;28;20180;-79
2023/03/09 06:37:39;;;;;;;5.07;4.63;;;7.30;99.90;;;;;;5099402;28;20176;-79
2023/03/09 06:40:05;;;;;;;4.83;4.33;;;7.40;99.90;;;;;;5113365;28;20540;-77
2023/03/09 06:42:31;;;;;;;8.33;5.10;;;7.50;99.90;;;;;;5113518;28;20170;-76
2023/03/09 06:44:56;;;;;;;7.27;5.00;;;7.50;99.90;;;;;;5114083;28;20291;-77
2023/03/09 06:47:22;;;;;;;9.20;4.87;;;7.60;99.90;;;;;;5105746;28;20169;-74
2023/03/09 06:49:48;;;;;;;7.37;5.07;;;7.50;99.90;;;;;;5072348;28;20171;-75
2023/03/09 06:52:14;;;;;;;6.40;5.00;;;7.70;99.90;;;;;;5073093;28;20169;-75
2023/03/09 06:54:39;;;;;;;7.80;5.17;;;7.80;99.90;;;;;;5073260;28;20246;-75
2023/03/09 06:57:05;;;;;;;6.27;5.07;;;7.90;99.90;;;;;;5072894;28;20174;-78
2023/03/09 06:59:31;;;;;;;6.10;5.50;;;7.90;99.90;;;;;;5072923;28;20181;-76
2023/03/09 07:01:56;;;;;;;10.07;6.30;;;8.00;99.90;;;;;;5073195;28;21020;-79
2023/03/09 07:04:22;;;;;;;7.43;5.67;;;8.10;99.90;;;;;;5077824;28;20296;-75
2023/03/09 07:06:48;;;;;;;6.57;5.17;;;8.10;99.90;;;;;;5078713;28;20194;-74
2023/03/09 07:09:14;;;;;;;8.27;5.43;;;8.30;99.90;;;;;;5107347;28;20288;-77
2023/03/09 07:11:39;;;;;;;6.17;5.00;;;8.40;99.90;;;;;;5101111;28;20264;-78
2023/03/09 07:14:05;;;;;;;6.80;5.67;;;8.50;99.90;;;;;;5095154;28;20209;-78
2023/03/09 07:16:31;;;;;;;9.17;5.70;;;8.60;99.90;;;;;;5093388;28;20258;-77
2023/03/09 07:18:57;;;;;;;8.60;6.23;;;8.70;99.90;;;;;;5093195;28;20672;-80
2023/03/09 07:21:22;;;;;;;8.00;5.80;;;8.80;99.90;;;;;;5075391;28;20178;-76
2023/03/09 07:23:48;;;;;;;9.30;5.40;;;9.00;99.90;;;;;;5098882;28;20200;-78
2023/03/09 07:26:14;;;;;;;6.07;5.40;;;9.10;99.90;;;;;;5098906;28;20178;-78
2023/03/09 07:28:39;;;;;;;9.90;5.53;;;9.30;99.90;;;;;;5093610;28;20220;-76
2023/03/09 07:31:11;;;;;;;6.13;5.53;;;9.50;99.90;;;;;;5093033;28;20625;-79
2023/03/09 07:33:37;;;;;;;6.77;5.70;;;9.60;99.90;;;;;;5093192;28;20168;-78
2023/03/09 07:36:06;;;;;;;6.60;5.37;;;9.60;99.90;;;;;;5092922;28;20200;-74
2023/03/09 07:38:33;;;;;;;5.20;4.70;;;9.70;99.90;;;;;;5094052;28;20173;-76
2023/03/09 07:40:59;;;;;;;7.33;5.47;;;9.90;99.90;;;;;;5093618;28;20170;-74
2023/03/09 07:43:26;;;;;;;8.70;5.33;;;10.00;99.90;;;;;;5094466;28;20268;-78
2023/03/09 07:45:52;;;;;;;6.53;5.37;;;10.20;99.90;;;;;;5095741;28;20177;-77
2023/03/09 07:48:18;;;;;;;5.50;4.90;;;10.30;99.90;;;;;;5104097;28;20176;-74
2023/03/09 07:50:45;;;;;;;8.07;5.13;;;10.40;99.90;;;;;;5103838;28;20229;-78
2023/03/09 07:53:10;;;;;;;6.97;4.23;;;10.50;99.90;;;;;;5094951;28;20177;-77
2023/03/09 07:55:37;;;;;;;8.13;4.67;;;10.60;99.90;;;;;;5093620;28;20227;-81
2023/03/09 07:58:04;;;;;;;5.00;4.50;;;10.70;99.90;;;;;;5076758;28;20170;-82
2023/03/09 08:00:31;;;;;;;6.53;4.47;;;10.70;99.90;;;;;;5095673;28;20234;-81
2023/03/09 08:02:58;;;;;;;5.07;4.53;;;10.80;99.70;;;;;;5098400;28;20178;-83
2023/03/09 08:05:24;;;;;;;6.30;4.73;;;10.90;99.60;;;;;;5098233;28;20274;-80
2023/03/09 08:07:49;;;;;;;7.87;4.43;;;11.20;99.50;;;;;;5098257;28;20178;-83
2023/03/09 08:10:17;;;;;;;5.90;4.60;;;11.30;99.50;;;;;;5098005;28;20172;-82
2023/03/09 08:12:47;;;;;;;4.63;4.10;;;11.30;99.50;;;;;;5098988;28;20171;-82
2023/03/09 08:15:13;;;;;;;3.97;3.67;;;11.40;99.50;;;;;;5079386;28;20259;-77
2023/03/09 08:17:39;;;;;;;5.60;4.47;;;11.60;99.00;;;;;;5097815;28;20575;-84
2023/03/09 08:20:08;;;;;;;7.93;4.43;;;11.80;98.90;;;;;;5098438;28;20179;-83
2023/03/09 08:22:36;;;;;;;5.87;3.80;;;11.90;98.80;;;;;;5098170;28;20186;-83
2023/03/09 08:25:03;;;;;;;7.20;3.30;;;12.00;98.50;;;;;;5097536;28;20226;-76
2023/03/09 08:27:29;;;;;;;2.83;2.50;;;12.30;98.10;;;;;;5097283;28;20243;-84
2023/03/09 08:29:55;;;;;;;4.20;1.80;;;12.50;97.90;;;;;;5097124;28;20265;-79
2023/03/09 08:32:23;;;;;;;1.37;1.37;;;12.70;97.30;;;;;;5096787;28;20166;-74
2023/03/09 08:34:53;;;;;;;2.17;1.83;;;12.80;97.10;;;;;;5096564;28;20202;-76
2023/03/09 08:37:19;;;;;;;3.23;1.50;;;13.10;96.60;;;;;;5096549;28;20186;-78
2023/03/09 08:39:44;;;;;;;1.70;1.60;;;13.30;96.20;;;;;;5098333;28;20643;-82
2023/03/09 08:42:10;;;;;;;1.60;1.50;;;13.40;96.00;;;;;;5102104;28;20197;-83
2023/03/09 08:44:36;;;;;;;1.37;1.37;;;13.50;95.90;;;;;;5112278;28;20263;-78
2023/03/09 08:47:02;;;;;;;1.60;1.50;;;13.60;95.90;;;;;;5111816;28;20175;-79
2023/03/09 08:49:28;;;;;;;1.70;1.60;;;13.70;95.70;;;;;;5096691;28;20258;-78
2023/03/09 08:51:55;;;;;;;1.47;1.37;;;13.80;95.70;;;;;;5096243;28;20173;-80
2023/03/09 08:54:21;;;;;;;1.37;1.30;;;13.90;95.40;;;;;;5095984;28;20167;-80
2023/03/09 08:56:46;;;;;;;6.90;2.63;;;14.10;95.30;;;;;;5096865;28;20269;-83
2023/03/09 08:59:12;;;;;;;1.10;1.10;;;14.20;95.50;;;;;;5080871;28;20186;-83
2023/03/09 09:01:38;;;;;;;1.10;1.10;;;14.30;95.10;;;;;;5079139;28;20706;-82
2023/03/09 09:04:04;;;;;;;1.10;1.10;;;14.40;95.10;;;;;;5096441;28;20210;-79
2023/03/09 09:06:30;;;;;;;1.50;1.10;;;14.60;94.70;;;;;;5097635;28;20258;-79
2023/03/09 09:08:56;;;;;;;1.30;1.17;;;14.90;94.10;;;;;;5098405;28;20261;-82
2023/03/09 09:11:21;;;;;;;0.90;0.90;;;15.10;93.50;;;;;;5095261;28;20628;-79
2023/03/09 09:13:47;;;;;;;1.20;1.20;;;15.10;93.50;;;;;;5077380;28;20185;-79
2023/03/09 09:16:15;;;;;;;1.00;1.00;;;15.10;93.30;;;;;;5077666;28;20649;-84
2023/03/09 09:18:41;;;;;;;1.40;1.30;;;15.10;93.40;;;;;;5096402;28;20190;-77
2023/03/09 09:21:12;;;;;;;2.87;1.43;;;15.10;93.10;;;;;;5078997;28;20174;-79
2023/03/09 09:23:40;;;;;;;1.10;1.00;;;15.20;93.20;;;;;;5105980;28;20217;-81
2023/03/09 09:26:06;;;;;;;1.20;1.20;;;15.30;93.10;;;;;;5099389;28;20207;-82
2023/03/09 09:28:32;;;;;;;1.57;1.47;;;15.30;93.20;;;;;;5097947;28;20178;-78
2023/03/09 09:31:00;;;;;;;1.30;1.30;;;15.40;93.00;;;;;;5096002;28;20232;-82
2023/03/09 09:33:30;;;;;;;1.20;1.20;;;15.40;92.80;;;;;;5095694;28;20638;-83
2023/03/09 09:36:00;;;;;;;1.20;1.20;;;15.60;92.80;;;;;;5095809;28;20171;-79
2023/03/09 09:38:27;;;;;;;1.20;1.20;;;15.60;92.50;;;;;;5095891;28;20158;-83
2023/03/09 09:40:55;;;;;;;1.90;1.07;;;15.50;92.50;;;;;;5095828;28;20167;-79
2023/03/09 09:43:22;;;;;;;1.27;1.27;;;15.60;92.40;;;;;;5095603;28;20312;-77
2023/03/09 09:45:49;;;;;;;2.07;1.80;;;15.80;92.50;;;;;;5096767;28;20231;-79
2023/03/09 09:48:17;;;;;;;1.40;1.10;;;16.20;92.00;;;;;;5096545;28;20170;-80
2023/03/09 09:51:22;;;;;;;1.93;1.60;;;16.40;91.80;;;;;;5097023;28;20251;-80
2023/03/09 09:54:24;;;;;;;2.50;1.67;;;16.60;91.20;;;;;;5096086;28;20200;-82
2023/03/09 09:56:55;;;;;;;2.93;1.60;;;17.00;89.70;;;;;;5098816;28;20185;-77
2023/03/09 09:59:32;;;;;;;2.93;1.47;;;17.20;89.00;;;;;;5095688;28;20174;-76
2023/03/09 10:02:31;;;;;;;2.33;1.73;;;17.20;87.50;;;;;;5095483;28;20163;-79
2023/03/09 10:05:05;;;;;;;1.87;1.77;;;17.10;85.80;;;;;;5095625;28;20198;-84
2023/03/09 10:07:32;;;;;;;3.00;1.80;;;17.00;86.20;;;;;;5097087;28;20634;-78
2023/03/09 10:10:06;;;;;;;2.30;1.80;;;16.90;86.00;;;;;;5096929;28;20177;-81
2023/03/09 10:12:32;;;;;;;2.47;1.30;;;16.90;85.80;;;;;;5096231;28;20159;-76
2023/03/09 10:15:06;;;;;;;1.63;1.53;;;16.80;86.10;;;;;;5096074;28;20546;-82
2023/03/09 10:17:39;;;;;;;1.77;1.43;;;16.80;86.10;;;;;;5097593;28;20185;-81
2023/03/09 10:20:35;;;;;;;1.70;1.60;;;16.80;86.60;;;;;;5105310;28;20179;-78
2023/03/09 10:23:21;;;;;;;3.53;1.33;;;17.00;85.30;;;;;;5112817;28;20150;-80
2023/03/09 10:25:50;;;;;;;1.50;1.40;;;17.00;85.10;;;;;;5096939;28;20162;-80
2023/03/09 10:28:19;;;;;;;3.63;1.23;;;17.10;85.10;;;;;;5094695;28;20167;-82
2023/03/09 10:31:01;;;;;;;1.67;1.53;;;17.10;84.80;;;;;;5094766;28;20177;-81
2023/03/09 10:33:45;;;;;;;3.13;1.37;;;17.10;83.90;;;;;;5094789;28;20170;-83
2023/03/09 10:36:30;;;;;;;2.20;1.67;;;17.10;84.40;;;;;;5094360;28;20171;-83
2023/03/09 10:39:11;;;;;;;1.80;1.33;;;17.10;84.20;;;;;;5094480;28;20182;-80
2023/03/09 10:41:36;;;;;;;1.07;1.07;;;17.00;84.30;;;;;;5095277;28;20167;-84
2023/03/09 10:44:03;;;;;;;1.83;1.70;;;17.00;84.10;;;;;;5093976;28;20229;-80
2023/03/09 10:46:30;;;;;;;1.60;1.37;;;17.00;85.20;;;;;;5093868;28;20228;-82
2023/03/09 10:49:13;;;;;;;1.20;1.20;;;17.00;86.60;;;;;;5097162;28;20233;-78
2023/03/09 10:51:44;;;;;;;1.53;1.50;;;17.00;86.90;;;;;;5094344;28;20177;-78
2023/03/09 10:54:18;;;;;;;1.20;1.20;;;17.00;86.90;;;;;;5095288;28;20614;-80
2023/03/09 10:56:46;;;;;;;1.00;1.00;;;17.10;87.70;;;;;;5095811;28;20168;-80
2023/03/09 10:59:26;;;;;;;1.07;1.00;;;17.10;87.00;;;;;;5094136;28;20589;-82
2023/03/09 11:01:57;;;;;;;1.93;1.20;;;17.20;86.50;;;;;;5093928;28;20216;-81
2023/03/09 11:04:31;;;;;;;1.03;1.03;;;17.10;86.30;;;;;;5094457;28;20301;-81
2023/03/09 11:07:17;;;;;;;2.37;1.43;;;17.10;85.90;;;;;;5094406;28;20163;-81
2023/03/09 11:09:43;;;;;;;1.03;0.90;;;17.00;85.40;;;;;;5093129;28;20186;-82
2023/03/09 11:12:37;;;;;;;0.83;0.83;;;16.90;84.90;;;;;;5096284;28;20219;-82
2023/03/09 11:15:15;;;;;;;1.53;1.00;;;16.90;84.90;;;;;;5093693;28;20193;-80
2023/03/09 11:17:44;;;;;;;1.00;1.00;;;16.80;85.50;;;;;;5096854;28;20923;-82
2023/03/09 11:20:12;;;;;;;0.80;0.80;;;16.70;83.60;;;;;;5100116;28;20166;-82
2023/03/09 11:22:47;;;;;;;0.93;0.93;;;16.70;84.90;;;;;;5095776;28;20174;-79
2023/03/09 11:25:35;;;;;;;1.10;1.10;;;16.60;83.60;;;;;;5093800;28;20215;-82
2023/03/09 11:28:12;;;;;;;2.87;1.47;;;16.60;84.40;;;;;;5094392;28;20166;-82
2023/03/09 11:30:39;;;;;;;0.70;0.70;;;16.70;83.60;;;;;;5094186;28;20161;-82
2023/03/09 11:33:11;;;;;;;1.83;1.73;;;16.70;84.10;;;;;;5094339;28;20168;-82
2023/03/09 11:35:37;;;;;;;1.20;0.90;;;16.80;83.90;;;;;;5094039;28;20517;-83
2023/03/09 11:38:10;;;;;;;1.37;0.90;;;16.70;83.70;;;;;;5093759;28;20175;-81
2023/03/09 11:40:39;;;;;;;0.90;0.90;;;16.80;82.90;;;;;;5093687;28;20606;-83
2023/03/09 11:43:22;;;;;;;0.70;0.70;;;16.90;83.10;;;;;;5093578;28;20235;-83
2023/03/09 11:45:53;;;;;;;0.83;0.60;;;17.00;81.70;;;;;;5093592;28;20204;-80
2023/03/09 11:48:32;;;;;;;0.30;0.30;;;17.00;81.40;;;;;;5075357;28;20175;-86
2023/03/09 11:51:33;;;;;;;0.50;0.50;;;16.90;79.90;;;;;;5093681;28;20174;-79
2023/03/09 11:54:27;;;;;;;0.63;0.63;;;17.00;78.30;;;;;;4992589;28;20192;-80
2023/03/09 11:56:54;;;;;;;0.40;0.40;;;16.90;76.90;;;;;;5003799;28;20169;-81
2023/03/09 11:59:38;;;;;;;0.47;0.47;;;16.90;76.60;;;;;;5013369;28;20186;-79
2023/03/09 12:02:31;;;;;;;3.10;0.73;;;17.00;76.20;;;;;;5007193;28;20759;-81
2023/03/09 12:04:57;;;;;;;1.90;0.80;;;17.10;76.20;;;;;;4995546;28;20222;-78
2023/03/09 12:07:58;;;;;;;0.60;0.60;;;17.10;75.80;;;;;;4995842;28;20174;-76
2023/03/09 12:10:48;;;;;;;0.50;0.50;;;17.10;75.30;;;;;;4960767;28;20192;-76
2023/03/09 12:13:27;;;;;;;1.30;0.50;;;17.20;75.30;;;;;;4991651;28;20273;-81
2023/03/09 12:15:56;;;;;;;0.40;0.40;;;17.30;74.10;;;;;;4991819;28;20228;-77
2023/03/09 12:18:29;;;;;;;0.60;0.60;;;17.20;74.00;;;;;;4992004;28;20188;-78
2023/03/09 12:21:00;;;;;;;0.40;0.40;;;17.30;74.00;;;;;;4991552;28;20194;-80
2023/03/09 12:23:35;;;;;;;0.50;0.50;;;17.20;73.90;;;;;;4992328;28;20174;-78
2023/03/09 12:26:05;;;;;;;0.60;0.60;;;17.10;74.00;;;;;;4993421;28;20200;-79
2023/03/09 12:28:31;;;;;;;0.33;0.33;;;17.00;74.20;;;;;;5054514;28;20209;-78
2023/03/09 12:30:58;;;;;;;1.63;0.83;;;16.90;74.50;;;;;;5073773;28;20182;-78
2023/03/09 12:33:42;;;;;;;0.40;0.40;;;17.00;73.90;;;;;;5055296;28;20171;-75
2023/03/09 12:36:29;;;;;;;0.57;0.57;;;17.20;72.50;;;;;;5083995;28;20179;-80
2023/03/09 12:39:24;;;;;;;0.80;0.50;;;17.10;72.60;;;;;;5093900;28;20261;-82
2023/03/09 12:42:08;;;;;;;1.20;0.50;;;17.10;72.50;;;;;;5093428;28;20247;-77
2023/03/09 12:44:43;;;;;;;0.50;0.50;;;17.00;71.90;;;;;;5093549;28;20234;-79
2023/03/09 12:47:31;;;;;;;0.30;0.30;;;17.00;72.70;;;;;;5095580;28;20269;-80
2023/03/09 12:49:58;;;;;;;0.50;0.50;;;17.10;72.70;;;;;;5095430;28;20252;-74
2023/03/09 12:52:39;;;;;;;0.73;0.60;;;17.20;71.80;;;;;;5095694;28;20179;-77
2023/03/09 12:55:40;;;;;;;0.63;0.63;;;17.30;72.10;;;;;;5095342;28;20181;-80
2023/03/09 12:58:17;;;;;;;0.40;0.40;;;17.30;72.10;;;;;;5095181;28;20207;-76
2023/03/09 13:01:05;;;;;;;1.07;0.50;;;17.30;71.90;;;;;;5095241;28;20178;-74
2023/03/09 13:03:48;;;;;;;0.60;0.60;;;17.40;71.60;;;;;;5077420;28;20232;-76
2023/03/09 13:06:34;;;;;;;0.50;0.50;;;17.50;71.50;;;;;;5096258;28;20170;-75